sensor_id;sensor_type;location;lat;lon;timestamp;temperature;humidity
70079;DHT22;57451;52.496;13.456;2022-11-15T00:01:52;6.10;77.40
70079;DHT22;57451;52.496;13.456;2022-11-15T00:04:38;6.10;77.60
70079;DHT22;57451;52.496;13.456;2022-11-15T00:07:24;6.10;77.90
70079;DHT22;57451;52.496;13.456;2022-11-15T00:10:29;6.10;77.80
70079;DHT22;57451;52.496;13.456;2022-11-15T00:13:15;6.10;77.80
70079;DHT22;57451;52.496;13.456;2022-11-15T00:16:01;6.10;77.80
70079;DHT22;57451;52.496;13.456;2022-11-15T00:18:49;6.10;77.90
70079;DHT22;57451;52.496;13.456;2022-11-15T00:21:35;6.00;77.80
70079;DHT22;57451;52.496;13.456;2022-11-15T00:24:21;6.00;77.90
70079;DHT22;57451;52.496;13.456;2022-11-15T00:27:07;6.00;78.00
70079;DHT22;57451;52.496;13.456;2022-11-15T00:29:53;6.00;77.90
70079;DHT22;57451;52.496;13.456;2022-11-15T00:32:39;6.00;77.80
70079;DHT22;57451;52.496;13.456;2022-11-15T00:35:26;5.90;77.90
70079;DHT22;57451;52.496;13.456;2022-11-15T00:38:12;5.90;77.80
70079;DHT22;57451;52.496;13.456;2022-11-15T00:40:58;5.90;77.80
70079;DHT22;57451;52.496;13.456;2022-11-15T00:43:44;5.90;78.30
70079;DHT22;57451;52.496;13.456;2022-11-15T00:46:30;5.80;78.10
70079;DHT22;57451;52.496;13.456;2022-11-15T00:49:16;5.80;78.00
70079;DHT22;57451;52.496;13.456;2022-11-15T00:52:03;5.80;78.10
70079;DHT22;57451;52.496;13.456;2022-11-15T00:54:49;5.80;78.10
70079;DHT22;57451;52.496;13.456;2022-11-15T00:57:35;5.80;77.90
70079;DHT22;57451;52.496;13.456;2022-11-15T01:00:20;5.80;78.10
70079;DHT22;57451;52.496;13.456;2022-11-15T01:03:06;5.80;77.90
70079;DHT22;57451;52.496;13.456;2022-11-15T01:05:52;5.70;77.90
70079;DHT22;57451;52.496;13.456;2022-11-15T01:08:40;5.70;77.90
70079;DHT22;57451;52.496;13.456;2022-11-15T01:11:26;5.70;77.80
70079;DHT22;57451;52.496;13.456;2022-11-15T01:14:11;5.70;77.80
70079;DHT22;57451;52.496;13.456;2022-11-15T01:16:57;5.70;77.90
70079;DHT22;57451;52.496;13.456;2022-11-15T01:19:43;5.60;77.80
70079;DHT22;57451;52.496;13.456;2022-11-15T01:22:29;5.60;77.70
70079;DHT22;57451;52.496;13.456;2022-11-15T01:25:16;5.60;77.50
70079;DHT22;57451;52.496;13.456;2022-11-15T01:28:02;5.60;77.60
70079;DHT22;57451;52.496;13.456;2022-11-15T01:30:48;5.60;77.40
70079;DHT22;57451;52.496;13.456;2022-11-15T01:33:34;5.50;77.60
70079;DHT22;57451;52.496;13.456;2022-11-15T01:36:22;5.50;77.70
70079;DHT22;57451;52.496;13.456;2022-11-15T01:39:08;5.50;77.70
70079;DHT22;57451;52.496;13.456;2022-11-15T01:41:55;5.50;77.50
70079;DHT22;57451;52.496;13.456;2022-11-15T01:44:43;5.50;77.70
70079;DHT22;57451;52.496;13.456;2022-11-15T01:47:34;5.40;77.70
70079;DHT22;57451;52.496;13.456;2022-11-15T01:50:25;5.50;77.90
70079;DHT22;57451;52.496;13.456;2022-11-15T01:53:14;5.40;77.70
70079;DHT22;57451;52.496;13.456;2022-11-15T01:56:02;5.40;77.80
70079;DHT22;57451;52.496;13.456;2022-11-15T01:58:50;5.40;78.00
70079;DHT22;57451;52.496;13.456;2022-11-15T02:01:37;5.40;78.00
70079;DHT22;57451;52.496;13.456;2022-11-15T02:04:25;5.40;78.00
70079;DHT22;57451;52.496;13.456;2022-11-15T02:07:14;5.40;78.00
70079;DHT22;57451;52.496;13.456;2022-11-15T02:10:06;5.30;78.10
70079;DHT22;57451;52.496;13.456;2022-11-15T02:12:52;5.40;78.50
70079;DHT22;57451;52.496;13.456;2022-11-15T02:15:43;5.40;78.40
70079;DHT22;57451;52.496;13.456;2022-11-15T02:18:34;5.30;78.20
70079;DHT22;57451;52.496;13.456;2022-11-15T02:21:28;5.30;78.30
70079;DHT22;57451;52.496;13.456;2022-11-15T02:24:35;5.30;78.30
70079;DHT22;57451;52.496;13.456;2022-11-15T02:31:01;5.20;78.30
70079;DHT22;57451;52.496;13.456;2022-11-15T02:33:54;5.20;78.40
70079;DHT22;57451;52.496;13.456;2022-11-15T02:36:53;5.20;78.30
70079;DHT22;57451;52.496;13.456;2022-11-15T02:39:49;5.20;78.30
70079;DHT22;57451;52.496;13.456;2022-11-15T02:42:39;5.10;78.30
70079;DHT22;57451;52.496;13.456;2022-11-15T02:46:00;5.10;78.00
70079;DHT22;57451;52.496;13.456;2022-11-15T02:48:47;5.10;78.20
70079;DHT22;57451;52.496;13.456;2022-11-15T02:51:33;5.10;78.30
70079;DHT22;57451;52.496;13.456;2022-11-15T02:54:22;5.20;78.40
70079;DHT22;57451;52.496;13.456;2022-11-15T02:57:13;5.20;78.20
70079;DHT22;57451;52.496;13.456;2022-11-15T03:00:07;5.10;78.40
70079;DHT22;57451;52.496;13.456;2022-11-15T03:03:08;5.10;78.50
70079;DHT22;57451;52.496;13.456;2022-11-15T03:06:03;5.10;78.70
70079;DHT22;57451;52.496;13.456;2022-11-15T03:08:59;5.10;78.50
70079;DHT22;57451;52.496;13.456;2022-11-15T03:11:50;5.10;78.60
70079;DHT22;57451;52.496;13.456;2022-11-15T03:14:47;5.10;78.50
70079;DHT22;57451;52.496;13.456;2022-11-15T03:17:38;5.10;78.70
70079;DHT22;57451;52.496;13.456;2022-11-15T03:20:28;5.00;78.70
70079;DHT22;57451;52.496;13.456;2022-11-15T03:23:14;5.10;78.80
70079;DHT22;57451;52.496;13.456;2022-11-15T03:26:00;5.00;78.80
70079;DHT22;57451;52.496;13.456;2022-11-15T03:28:50;5.10;79.00
70079;DHT22;57451;52.496;13.456;2022-11-15T03:31:39;5.10;79.20
70079;DHT22;57451;52.496;13.456;2022-11-15T03:34:39;5.10;78.90
70079;DHT22;57451;52.496;13.456;2022-11-15T03:37:32;5.00;79.10
70079;DHT22;57451;52.496;13.456;2022-11-15T03:40:23;5.00;79.20
70079;DHT22;57451;52.496;13.456;2022-11-15T03:43:15;5.00;79.00
70079;DHT22;57451;52.496;13.456;2022-11-15T03:46:05;5.00;79.00
70079;DHT22;57451;52.496;13.456;2022-11-15T03:48:54;5.00;79.20
70079;DHT22;57451;52.496;13.456;2022-11-15T03:51:42;5.00;79.00
70079;DHT22;57451;52.496;13.456;2022-11-15T03:54:29;5.00;79.20
70079;DHT22;57451;52.496;13.456;2022-11-15T03:57:15;5.00;79.30
70079;DHT22;57451;52.496;13.456;2022-11-15T04:00:02;5.00;79.20
70079;DHT22;57451;52.496;13.456;2022-11-15T04:02:48;5.00;79.30
70079;DHT22;57451;52.496;13.456;2022-11-15T04:05:34;5.00;79.10
70079;DHT22;57451;52.496;13.456;2022-11-15T04:08:20;5.00;79.20
70079;DHT22;57451;52.496;13.456;2022-11-15T04:11:07;5.00;79.10
70079;DHT22;57451;52.496;13.456;2022-11-15T04:13:53;5.00;79.30
70079;DHT22;57451;52.496;13.456;2022-11-15T04:16:39;5.00;79.50
70079;DHT22;57451;52.496;13.456;2022-11-15T04:19:28;4.90;79.30
70079;DHT22;57451;52.496;13.456;2022-11-15T04:22:33;5.00;79.40
70079;DHT22;57451;52.496;13.456;2022-11-15T04:25:37;5.00;79.30
70079;DHT22;57451;52.496;13.456;2022-11-15T04:28:25;4.90;79.40
70079;DHT22;57451;52.496;13.456;2022-11-15T04:31:10;4.90;79.30
70079;DHT22;57451;52.496;13.456;2022-11-15T04:33:56;5.00;79.50
70079;DHT22;57451;52.496;13.456;2022-11-15T04:36:42;5.00;79.40
70079;DHT22;57451;52.496;13.456;2022-11-15T04:39:47;4.90;79.20
70079;DHT22;57451;52.496;13.456;2022-11-15T04:42:32;4.90;79.10
70079;DHT22;57451;52.496;13.456;2022-11-15T04:45:20;4.90;79.20
70079;DHT22;57451;52.496;13.456;2022-11-15T04:48:05;4.90;79.30
70079;DHT22;57451;52.496;13.456;2022-11-15T04:50:51;4.90;79.20
70079;DHT22;57451;52.496;13.456;2022-11-15T04:53:37;4.90;79.50
70079;DHT22;57451;52.496;13.456;2022-11-15T04:56:23;4.90;79.30
70079;DHT22;57451;52.496;13.456;2022-11-15T04:59:09;4.90;79.30
70079;DHT22;57451;52.496;13.456;2022-11-15T05:01:56;4.90;79.30
70079;DHT22;57451;52.496;13.456;2022-11-15T05:04:42;4.90;79.50
70079;DHT22;57451;52.496;13.456;2022-11-15T05:07:28;4.90;79.20
70079;DHT22;57451;52.496;13.456;2022-11-15T05:10:14;4.90;79.30
70079;DHT22;57451;52.496;13.456;2022-11-15T05:13:00;4.90;79.50
70079;DHT22;57451;52.496;13.456;2022-11-15T05:15:46;4.90;79.60
70079;DHT22;57451;52.496;13.456;2022-11-15T05:18:33;4.80;79.50
70079;DHT22;57451;52.496;13.456;2022-11-15T05:21:20;4.90;79.30
70079;DHT22;57451;52.496;13.456;2022-11-15T05:24:08;4.90;79.20
70079;DHT22;57451;52.496;13.456;2022-11-15T05:26:54;4.80;79.30
70079;DHT22;57451;52.496;13.456;2022-11-15T05:29:40;4.80;79.20
70079;DHT22;57451;52.496;13.456;2022-11-15T05:32:27;4.80;79.40
70079;DHT22;57451;52.496;13.456;2022-11-15T05:35:20;4.80;79.10
70079;DHT22;57451;52.496;13.456;2022-11-15T05:38:07;4.80;79.00
70079;DHT22;57451;52.496;13.456;2022-11-15T05:40:53;4.80;79.00
70079;DHT22;57451;52.496;13.456;2022-11-15T05:43:40;4.80;78.90
70079;DHT22;57451;52.496;13.456;2022-11-15T05:46:27;4.80;79.20
70079;DHT22;57451;52.496;13.456;2022-11-15T05:49:15;4.80;79.30
70079;DHT22;57451;52.496;13.456;2022-11-15T05:52:05;4.80;79.40
70079;DHT22;57451;52.496;13.456;2022-11-15T05:54:53;4.80;79.30
70079;DHT22;57451;52.496;13.456;2022-11-15T05:57:39;4.80;79.30
70079;DHT22;57451;52.496;13.456;2022-11-15T06:00:25;4.80;79.30
70079;DHT22;57451;52.496;13.456;2022-11-15T06:03:11;4.80;79.50
70079;DHT22;57451;52.496;13.456;2022-11-15T06:05:57;4.80;79.50
70079;DHT22;57451;52.496;13.456;2022-11-15T06:08:44;4.80;79.40
70079;DHT22;57451;52.496;13.456;2022-11-15T06:11:30;4.80;79.40
70079;DHT22;57451;52.496;13.456;2022-11-15T06:14:16;4.80;79.30
70079;DHT22;57451;52.496;13.456;2022-11-15T06:17:02;4.80;79.40
70079;DHT22;57451;52.496;13.456;2022-11-15T06:19:55;4.80;79.60
70079;DHT22;57451;52.496;13.456;2022-11-15T06:22:41;4.80;79.50
70079;DHT22;57451;52.496;13.456;2022-11-15T06:25:29;4.80;79.80
70079;DHT22;57451;52.496;13.456;2022-11-15T06:28:16;4.80;79.50
70079;DHT22;57451;52.496;13.456;2022-11-15T06:31:02;4.80;79.60
70079;DHT22;57451;52.496;13.456;2022-11-15T06:33:48;4.80;79.50
70079;DHT22;57451;52.496;13.456;2022-11-15T06:36:35;4.80;79.50
70079;DHT22;57451;52.496;13.456;2022-11-15T06:39:21;4.80;79.60
70079;DHT22;57451;52.496;13.456;2022-11-15T06:42:09;4.80;79.90
70079;DHT22;57451;52.496;13.456;2022-11-15T06:44:55;4.80;79.90
70079;DHT22;57451;52.496;13.456;2022-11-15T06:47:44;4.80;80.00
70079;DHT22;57451;52.496;13.456;2022-11-15T06:50:30;4.80;79.90
70079;DHT22;57451;52.496;13.456;2022-11-15T06:53:16;4.80;79.80
70079;DHT22;57451;52.496;13.456;2022-11-15T06:56:05;4.80;79.80
70079;DHT22;57451;52.496;13.456;2022-11-15T06:58:52;4.80;80.10
70079;DHT22;57451;52.496;13.456;2022-11-15T07:01:38;4.80;80.20
70079;DHT22;57451;52.496;13.456;2022-11-15T07:04:23;4.80;80.00
70079;DHT22;57451;52.496;13.456;2022-11-15T07:07:09;4.80;79.90
70079;DHT22;57451;52.496;13.456;2022-11-15T07:09:55;4.80;79.90
70079;DHT22;57451;52.496;13.456;2022-11-15T07:12:41;4.90;79.90
70079;DHT22;57451;52.496;13.456;2022-11-15T07:15:28;4.90;80.10
70079;DHT22;57451;52.496;13.456;2022-11-15T07:18:14;4.90;80.20
70079;DHT22;57451;52.496;13.456;2022-11-15T07:21:01;4.90;80.50
70079;DHT22;57451;52.496;13.456;2022-11-15T07:23:47;4.90;80.50
70079;DHT22;57451;52.496;13.456;2022-11-15T07:26:33;5.00;80.80
70079;DHT22;57451;52.496;13.456;2022-11-15T07:29:19;5.10;81.10
70079;DHT22;57451;52.496;13.456;2022-11-15T07:32:06;5.20;81.30
70079;DHT22;57451;52.496;13.456;2022-11-15T07:34:52;5.30;81.70
70079;DHT22;57451;52.496;13.456;2022-11-15T07:37:37;5.40;82.00
70079;DHT22;57451;52.496;13.456;2022-11-15T07:40:24;5.50;82.20
70079;DHT22;57451;52.496;13.456;2022-11-15T07:43:09;5.70;82.30
70079;DHT22;57451;52.496;13.456;2022-11-15T07:45:56;5.90;82.50
70079;DHT22;57451;52.496;13.456;2022-11-15T07:48:45;6.10;82.40
70079;DHT22;57451;52.496;13.456;2022-11-15T07:51:31;6.20;82.20
70079;DHT22;57451;52.496;13.456;2022-11-15T07:54:17;6.40;82.10
70079;DHT22;57451;52.496;13.456;2022-11-15T07:57:03;6.60;81.90
70079;DHT22;57451;52.496;13.456;2022-11-15T07:59:52;6.80;81.50
70079;DHT22;57451;52.496;13.456;2022-11-15T08:02:38;7.00;81.40
70079;DHT22;57451;52.496;13.456;2022-11-15T08:05:25;7.30;81.20
70079;DHT22;57451;52.496;13.456;2022-11-15T08:08:11;7.50;80.70
70079;DHT22;57451;52.496;13.456;2022-11-15T08:10:57;7.80;79.80
70079;DHT22;57451;52.496;13.456;2022-11-15T08:13:43;8.00;79.10
70079;DHT22;57451;52.496;13.456;2022-11-15T08:16:29;8.30;77.90
70079;DHT22;57451;52.496;13.456;2022-11-15T08:19:15;8.60;77.20
70079;DHT22;57451;52.496;13.456;2022-11-15T08:22:02;8.90;76.50
70079;DHT22;57451;52.496;13.456;2022-11-15T08:24:48;9.10;75.20
70079;DHT22;57451;52.496;13.456;2022-11-15T08:27:34;9.40;74.20
70079;DHT22;57451;52.496;13.456;2022-11-15T08:30:20;9.60;74.20
70079;DHT22;57451;52.496;13.456;2022-11-15T08:33:06;9.90;73.30
70079;DHT22;57451;52.496;13.456;2022-11-15T08:35:51;10.20;72.10
70079;DHT22;57451;52.496;13.456;2022-11-15T08:38:39;10.40;70.80
70079;DHT22;57451;52.496;13.456;2022-11-15T08:41:28;10.70;69.40
70079;DHT22;57451;52.496;13.456;2022-11-15T08:44:15;10.90;68.90
70079;DHT22;57451;52.496;13.456;2022-11-15T08:47:01;11.20;68.10
70079;DHT22;57451;52.496;13.456;2022-11-15T08:49:46;11.40;68.50
70079;DHT22;57451;52.496;13.456;2022-11-15T08:52:32;11.70;67.60
70079;DHT22;57451;52.496;13.456;2022-11-15T08:55:19;11.90;67.30
70079;DHT22;57451;52.496;13.456;2022-11-15T08:58:09;12.20;65.70
70079;DHT22;57451;52.496;13.456;2022-11-15T09:00:55;12.50;64.60
70079;DHT22;57451;52.496;13.456;2022-11-15T09:03:41;12.70;64.60
70079;DHT22;57451;52.496;13.456;2022-11-15T09:06:27;13.00;64.60
70079;DHT22;57451;52.496;13.456;2022-11-15T09:09:13;13.30;63.20
70079;DHT22;57451;52.496;13.456;2022-11-15T09:12:00;13.60;61.90
70079;DHT22;57451;52.496;13.456;2022-11-15T09:14:47;13.90;60.50
70079;DHT22;57451;52.496;13.456;2022-11-15T09:17:33;14.20;60.70
70079;DHT22;57451;52.496;13.456;2022-11-15T09:20:19;14.40;60.60
70079;DHT22;57451;52.496;13.456;2022-11-15T09:23:05;14.70;61.30
70079;DHT22;57451;52.496;13.456;2022-11-15T09:25:51;14.90;60.00
70079;DHT22;57451;52.496;13.456;2022-11-15T09:28:39;15.20;57.50
70079;DHT22;57451;52.496;13.456;2022-11-15T09:31:27;15.50;58.10
70079;DHT22;57451;52.496;13.456;2022-11-15T09:34:13;15.80;56.10
70079;DHT22;57451;52.496;13.456;2022-11-15T09:36:59;16.00;57.90
70079;DHT22;57451;52.496;13.456;2022-11-15T09:39:45;16.30;55.20
70079;DHT22;57451;52.496;13.456;2022-11-15T09:42:44;16.50;54.10
70079;DHT22;57451;52.496;13.456;2022-11-15T09:45:40;16.80;53.50
70079;DHT22;57451;52.496;13.456;2022-11-15T09:48:43;17.00;52.80
70079;DHT22;57451;52.496;13.456;2022-11-15T09:51:32;17.10;52.60
70079;DHT22;57451;52.496;13.456;2022-11-15T09:54:08;17.30;53.40
70079;DHT22;57451;52.496;13.456;2022-11-15T09:57:03;17.40;52.80
70079;DHT22;57451;52.496;13.456;2022-11-15T09:59:43;17.40;52.90
70079;DHT22;57451;52.496;13.456;2022-11-15T10:02:22;17.40;51.70
70079;DHT22;57451;52.496;13.456;2022-11-15T10:04:53;17.50;51.70
70079;DHT22;57451;52.496;13.456;2022-11-15T10:07:25;17.60;50.40
70079;DHT22;57451;52.496;13.456;2022-11-15T10:09:56;17.70;52.00
70079;DHT22;57451;52.496;13.456;2022-11-15T10:12:27;17.70;50.70
70079;DHT22;57451;52.496;13.456;2022-11-15T10:15:00;17.70;50.20
70079;DHT22;57451;52.496;13.456;2022-11-15T10:17:41;17.70;50.20
70079;DHT22;57451;52.496;13.456;2022-11-15T10:20:20;17.70;50.50
70079;DHT22;57451;52.496;13.456;2022-11-15T10:22:50;17.80;50.90
70079;DHT22;57451;52.496;13.456;2022-11-15T10:25:20;17.80;49.40
70079;DHT22;57451;52.496;13.456;2022-11-15T10:27:54;17.70;50.90
70079;DHT22;57451;52.496;13.456;2022-11-15T10:30:31;17.70;50.40
70079;DHT22;57451;52.496;13.456;2022-11-15T10:33:10;17.70;50.50
70079;DHT22;57451;52.496;13.456;2022-11-15T10:35:38;17.70;50.10
70079;DHT22;57451;52.496;13.456;2022-11-15T10:38:07;17.70;51.60
70079;DHT22;57451;52.496;13.456;2022-11-15T10:40:36;17.60;51.30
70079;DHT22;57451;52.496;13.456;2022-11-15T10:43:06;17.50;49.60
70079;DHT22;57451;52.496;13.456;2022-11-15T10:45:39;17.40;50.10
70079;DHT22;57451;52.496;13.456;2022-11-15T10:48:26;17.30;50.60
70079;DHT22;57451;52.496;13.456;2022-11-15T10:50:55;17.30;50.90
70079;DHT22;57451;52.496;13.456;2022-11-15T10:53:28;17.20;51.00
70079;DHT22;57451;52.496;13.456;2022-11-15T10:55:57;17.20;51.10
70079;DHT22;57451;52.496;13.456;2022-11-15T10:58:32;17.10;51.30
70079;DHT22;57451;52.496;13.456;2022-11-15T11:01:15;17.10;51.50
70079;DHT22;57451;52.496;13.456;2022-11-15T11:03:57;17.20;51.50
70079;DHT22;57451;52.496;13.456;2022-11-15T11:06:26;17.20;52.70
70079;DHT22;57451;52.496;13.456;2022-11-15T11:08:56;17.20;51.20
70079;DHT22;57451;52.496;13.456;2022-11-15T11:11:24;17.30;53.30
70079;DHT22;57451;52.496;13.456;2022-11-15T11:13:52;17.60;51.40
70079;DHT22;57451;52.496;13.456;2022-11-15T11:16:41;17.70;51.00
70079;DHT22;57451;52.496;13.456;2022-11-15T11:19:37;17.80;50.30
70079;DHT22;57451;52.496;13.456;2022-11-15T11:22:15;17.80;50.90
70079;DHT22;57451;52.496;13.456;2022-11-15T11:24:50;17.80;50.30
70079;DHT22;57451;52.496;13.456;2022-11-15T11:27:33;17.90;49.70
70079;DHT22;57451;52.496;13.456;2022-11-15T11:30:08;17.90;49.50
70079;DHT22;57451;52.496;13.456;2022-11-15T11:33:00;17.90;50.50
70079;DHT22;57451;52.496;13.456;2022-11-15T11:35:34;17.90;50.60
70079;DHT22;57451;52.496;13.456;2022-11-15T11:38:15;17.90;49.80
70079;DHT22;57451;52.496;13.456;2022-11-15T11:41:02;17.90;51.10
70079;DHT22;57451;52.496;13.456;2022-11-15T11:43:36;18.00;50.80
70079;DHT22;57451;52.496;13.456;2022-11-15T11:46:16;18.10;49.90
70079;DHT22;57451;52.496;13.456;2022-11-15T11:48:52;18.20;51.30
70079;DHT22;57451;52.496;13.456;2022-11-15T11:51:28;18.40;50.60
70079;DHT22;57451;52.496;13.456;2022-11-15T11:54:04;18.50;49.80
70079;DHT22;57451;52.496;13.456;2022-11-15T11:56:35;18.40;50.00
70079;DHT22;57451;52.496;13.456;2022-11-15T11:59:10;18.40;50.20
70079;DHT22;57451;52.496;13.456;2022-11-15T12:01:42;18.60;50.40
70079;DHT22;57451;52.496;13.456;2022-11-15T12:04:14;18.80;50.60
70079;DHT22;57451;52.496;13.456;2022-11-15T12:06:49;18.90;49.70
70079;DHT22;57451;52.496;13.456;2022-11-15T12:09:21;19.10;49.40
70079;DHT22;57451;52.496;13.456;2022-11-15T12:11:53;19.30;48.80
70079;DHT22;57451;52.496;13.456;2022-11-15T12:14:28;19.40;49.30
70079;DHT22;57451;52.496;13.456;2022-11-15T12:16:58;19.60;49.00
70079;DHT22;57451;52.496;13.456;2022-11-15T12:19:26;19.80;48.00
70079;DHT22;57451;52.496;13.456;2022-11-15T12:22:00;19.90;48.00
70079;DHT22;57451;52.496;13.456;2022-11-15T12:24:33;20.00;47.30
70079;DHT22;57451;52.496;13.456;2022-11-15T12:27:05;20.10;47.30
70079;DHT22;57451;52.496;13.456;2022-11-15T12:29:37;20.20;46.50
70079;DHT22;57451;52.496;13.456;2022-11-15T12:32:17;20.30;47.60
70079;DHT22;57451;52.496;13.456;2022-11-15T12:34:48;20.40;48.40
70079;DHT22;57451;52.496;13.456;2022-11-15T12:40:28;20.80;47.50
70079;DHT22;57451;52.496;13.456;2022-11-15T12:42:59;20.90;45.20
70079;DHT22;57451;52.496;13.456;2022-11-15T12:45:29;20.90;45.40
70079;DHT22;57451;52.496;13.456;2022-11-15T12:54:51;20.90;45.90
70079;DHT22;57451;52.496;13.456;2022-11-15T12:57:39;20.80;45.90
70079;DHT22;57451;52.496;13.456;2022-11-15T13:03:19;20.90;45.60
70079;DHT22;57451;52.496;13.456;2022-11-15T13:06:08;20.90;46.00
70079;DHT22;57451;52.496;13.456;2022-11-15T13:08:47;20.90;45.40
70079;DHT22;57451;52.496;13.456;2022-11-15T13:11:43;21.00;46.00
70079;DHT22;57451;52.496;13.456;2022-11-15T13:14:37;21.00;45.90
70079;DHT22;57451;52.496;13.456;2022-11-15T13:17:27;21.10;45.10
70079;DHT22;57451;52.496;13.456;2022-11-15T13:19:59;21.20;45.30
70079;DHT22;57451;52.496;13.456;2022-11-15T13:22:27;21.30;45.30
70079;DHT22;57451;52.496;13.456;2022-11-15T13:25:21;21.40;46.10
70079;DHT22;57451;52.496;13.456;2022-11-15T13:27:52;21.50;45.60
70079;DHT22;57451;52.496;13.456;2022-11-15T13:30:24;21.60;44.60
70079;DHT22;57451;52.496;13.456;2022-11-15T13:32:52;21.70;44.20
70079;DHT22;57451;52.496;13.456;2022-11-15T13:35:22;21.80;43.90
70079;DHT22;57451;52.496;13.456;2022-11-15T13:37:50;21.80;44.60
70079;DHT22;57451;52.496;13.456;2022-11-15T13:40:23;21.90;44.30
70079;DHT22;57451;52.496;13.456;2022-11-15T13:42:51;22.00;43.40
70079;DHT22;57451;52.496;13.456;2022-11-15T13:45:19;22.00;43.40
70079;DHT22;57451;52.496;13.456;2022-11-15T13:47:54;22.00;43.70
70079;DHT22;57451;52.496;13.456;2022-11-15T13:50:25;22.00;43.50
70079;DHT22;57451;52.496;13.456;2022-11-15T13:52:55;21.90;43.40
70079;DHT22;57451;52.496;13.456;2022-11-15T13:55:24;21.80;44.30
70079;DHT22;57451;52.496;13.456;2022-11-15T13:57:54;21.80;44.00
70079;DHT22;57451;52.496;13.456;2022-11-15T14:00:33;21.70;44.30
70079;DHT22;57451;52.496;13.456;2022-11-15T14:03:12;21.60;44.70
70079;DHT22;57451;52.496;13.456;2022-11-15T14:05:43;21.50;44.90
70079;DHT22;57451;52.496;13.456;2022-11-15T14:08:22;21.30;45.20
70079;DHT22;57451;52.496;13.456;2022-11-15T14:11:07;21.20;45.10
70079;DHT22;57451;52.496;13.456;2022-11-15T14:13:35;21.00;44.50
70079;DHT22;57451;52.496;13.456;2022-11-15T14:16:16;20.70;45.30
70079;DHT22;57451;52.496;13.456;2022-11-15T14:18:48;20.40;46.10
70079;DHT22;57451;52.496;13.456;2022-11-15T14:21:17;20.20;47.60
70079;DHT22;57451;52.496;13.456;2022-11-15T14:23:45;20.00;48.00
70079;DHT22;57451;52.496;13.456;2022-11-15T14:26:28;19.70;47.40
70079;DHT22;57451;52.496;13.456;2022-11-15T14:28:56;19.50;48.20
70079;DHT22;57451;52.496;13.456;2022-11-15T14:31:23;19.20;48.20
70079;DHT22;57451;52.496;13.456;2022-11-15T14:33:52;19.00;49.50
70079;DHT22;57451;52.496;13.456;2022-11-15T14:36:20;18.80;49.70
70079;DHT22;57451;52.496;13.456;2022-11-15T14:38:48;18.60;50.40
70079;DHT22;57451;52.496;13.456;2022-11-15T14:41:20;18.40;50.10
70079;DHT22;57451;52.496;13.456;2022-11-15T14:43:49;18.20;50.70
70079;DHT22;57451;52.496;13.456;2022-11-15T14:46:17;17.90;50.50
70079;DHT22;57451;52.496;13.456;2022-11-15T14:48:44;17.70;51.60
70079;DHT22;57451;52.496;13.456;2022-11-15T14:51:15;17.50;51.70
70079;DHT22;57451;52.496;13.456;2022-11-15T14:53:44;17.30;52.60
70079;DHT22;57451;52.496;13.456;2022-11-15T14:56:12;17.20;53.00
70079;DHT22;57451;52.496;13.456;2022-11-15T14:58:39;17.00;53.40
70079;DHT22;57451;52.496;13.456;2022-11-15T15:01:13;16.80;53.40
70079;DHT22;57451;52.496;13.456;2022-11-15T15:03:40;16.60;54.00
70079;DHT22;57451;52.496;13.456;2022-11-15T15:06:08;16.40;54.20
70079;DHT22;57451;52.496;13.456;2022-11-15T15:08:45;16.30;54.80
70079;DHT22;57451;52.496;13.456;2022-11-15T15:11:15;16.10;55.10
70079;DHT22;57451;52.496;13.456;2022-11-15T15:13:43;15.90;55.50
70079;DHT22;57451;52.496;13.456;2022-11-15T15:16:10;15.70;55.90
70079;DHT22;57451;52.496;13.456;2022-11-15T15:18:37;15.60;56.40
70079;DHT22;57451;52.496;13.456;2022-11-15T15:21:22;15.50;56.40
70079;DHT22;57451;52.496;13.456;2022-11-15T15:23:51;15.40;57.10
70079;DHT22;57451;52.496;13.456;2022-11-15T15:26:18;15.20;57.40
70079;DHT22;57451;52.496;13.456;2022-11-15T15:28:45;15.10;57.50
70079;DHT22;57451;52.496;13.456;2022-11-15T15:31:15;15.00;57.80
70079;DHT22;57451;52.496;13.456;2022-11-15T15:33:42;14.90;58.00
70079;DHT22;57451;52.496;13.456;2022-11-15T15:36:11;14.80;58.30
70079;DHT22;57451;52.496;13.456;2022-11-15T15:38:39;14.70;58.60
70079;DHT22;57451;52.496;13.456;2022-11-15T15:41:12;14.60;58.90
70079;DHT22;57451;52.496;13.456;2022-11-15T15:43:40;14.50;59.30
70079;DHT22;57451;52.496;13.456;2022-11-15T15:46:10;14.40;59.30
70079;DHT22;57451;52.496;13.456;2022-11-15T15:48:38;14.20;59.60
70079;DHT22;57451;52.496;13.456;2022-11-15T15:51:06;14.10;59.80
70079;DHT22;57451;52.496;13.456;2022-11-15T15:53:46;14.00;60.10
70079;DHT22;57451;52.496;13.456;2022-11-15T15:56:14;13.90;60.60
70079;DHT22;57451;52.496;13.456;2022-11-15T15:58:41;13.80;61.00
70079;DHT22;57451;52.496;13.456;2022-11-15T16:01:09;13.70;61.20
70079;DHT22;57451;52.496;13.456;2022-11-15T16:03:36;13.60;61.60
70079;DHT22;57451;52.496;13.456;2022-11-15T16:06:04;13.50;61.70
70079;DHT22;57451;52.496;13.456;2022-11-15T16:08:32;13.50;62.40
70079;DHT22;57451;52.496;13.456;2022-11-15T16:11:20;13.40;62.40
70079;DHT22;57451;52.496;13.456;2022-11-15T16:13:48;13.30;62.70
70079;DHT22;57451;52.496;13.456;2022-11-15T16:16:15;13.20;62.70
70079;DHT22;57451;52.496;13.456;2022-11-15T16:18:43;13.20;62.90
70079;DHT22;57451;52.496;13.456;2022-11-15T16:21:10;13.10;62.90
70079;DHT22;57451;52.496;13.456;2022-11-15T16:23:37;13.00;63.20
70079;DHT22;57451;52.496;13.456;2022-11-15T16:26:17;12.90;63.90
70079;DHT22;57451;52.496;13.456;2022-11-15T16:28:46;12.90;64.00
70079;DHT22;57451;52.496;13.456;2022-11-15T16:31:13;12.80;64.40
70079;DHT22;57451;52.496;13.456;2022-11-15T16:33:40;12.70;64.70
70079;DHT22;57451;52.496;13.456;2022-11-15T16:36:18;12.60;65.20
70079;DHT22;57451;52.496;13.456;2022-11-15T16:38:52;12.60;65.10
70079;DHT22;57451;52.496;13.456;2022-11-15T16:41:19;12.50;65.40
70079;DHT22;57451;52.496;13.456;2022-11-15T16:43:48;12.50;65.40
70079;DHT22;57451;52.496;13.456;2022-11-15T16:46:17;12.40;65.30
70079;DHT22;57451;52.496;13.456;2022-11-15T16:48:45;12.40;65.60
70079;DHT22;57451;52.496;13.456;2022-11-15T16:51:13;12.30;66.10
70079;DHT22;57451;52.496;13.456;2022-11-15T16:53:40;12.20;65.80
70079;DHT22;57451;52.496;13.456;2022-11-15T16:56:18;12.20;66.30
70079;DHT22;57451;52.496;13.456;2022-11-15T16:58:48;12.10;66.20
70079;DHT22;57451;52.496;13.456;2022-11-15T17:01:18;12.10;66.60
70079;DHT22;57451;52.496;13.456;2022-11-15T17:03:46;12.00;66.50
70079;DHT22;57451;52.496;13.456;2022-11-15T17:06:14;11.90;67.20
70079;DHT22;57451;52.496;13.456;2022-11-15T17:08:41;11.80;67.40